createdAt,value
2023-04-18T00:00:49.012Z,8.31
2023-04-18T00:03:17.027Z,8.31
2023-04-18T00:05:46.686Z,8.30
2023-04-18T00:08:13.882Z,8.29
2023-04-18T00:10:40.559Z,8.28
2023-04-18T00:13:06.861Z,8.28
2023-04-18T00:15:34.779Z,8.28
2023-04-18T00:18:03.232Z,8.29
2023-04-18T00:20:30.061Z,8.29
2023-04-18T00:22:56.480Z,8.29
2023-04-18T00:25:22.860Z,8.28
2023-04-18T00:27:49.124Z,8.28
2023-04-18T00:30:17.056Z,8.27
2023-04-18T00:32:43.857Z,8.27
2023-04-18T00:35:10.182Z,8.26
2023-04-18T00:37:37.734Z,8.27
2023-04-18T00:40:05.035Z,8.26
2023-04-18T00:42:31.429Z,8.26
2023-04-18T00:44:57.733Z,8.26
2023-04-18T00:47:24.535Z,8.26
2023-04-18T00:49:51.048Z,8.26
2023-04-18T00:52:18.039Z,8.26
2023-04-18T00:54:44.824Z,8.25
2023-04-18T00:57:12.359Z,8.26
2023-04-18T00:59:38.676Z,8.26
2023-04-18T01:02:07.315Z,8.27
2023-04-18T01:04:33.766Z,8.26
2023-04-18T01:07:01.562Z,8.27
2023-04-18T01:09:28.681Z,8.27
2023-04-18T01:11:55.316Z,8.27
2023-04-18T01:14:21.939Z,8.27
2023-04-18T01:16:48.262Z,8.27
2023-04-18T01:19:16.728Z,8.27
2023-04-18T01:21:43.329Z,8.27
2023-04-18T01:24:15.896Z,8.27
2023-04-18T01:26:44.616Z,8.27
2023-04-18T01:29:11.681Z,8.27
2023-04-18T01:31:39.314Z,8.27
2023-04-18T01:34:07.188Z,8.26
2023-04-18T01:36:35.296Z,8.27
2023-04-18T01:39:01.865Z,8.27
2023-04-18T01:41:31.626Z,8.27
2023-04-18T01:43:59.032Z,8.27
2023-04-18T01:46:26.324Z,8.26
2023-04-18T01:48:54.740Z,8.26
2023-04-18T01:51:21.458Z,8.27
2023-04-18T01:53:47.998Z,8.27
2023-04-18T01:56:14.334Z,8.26
2023-04-18T01:58:41.018Z,8.26
2023-04-18T02:01:07.720Z,8.25
2023-04-18T02:03:34.398Z,8.25
2023-04-18T02:06:04.703Z,8.26
2023-04-18T02:08:34.689Z,8.25
2023-04-18T02:11:04.766Z,8.25
2023-04-18T02:13:32.163Z,8.25
2023-04-18T02:15:58.551Z,8.24
2023-04-18T02:18:25.914Z,8.24
2023-04-18T02:20:52.217Z,8.24
2023-04-18T02:23:18.575Z,8.24
2023-04-18T02:25:45.099Z,8.24
2023-04-18T02:28:12.465Z,8.24
2023-04-18T02:30:38.723Z,8.23
2023-04-18T02:33:05.047Z,8.23
2023-04-18T02:35:31.430Z,8.23
2023-04-18T02:37:57.718Z,8.23
2023-04-18T02:40:24.844Z,8.23
2023-04-18T02:42:52.999Z,8.23
2023-04-18T02:45:19.341Z,8.23
2023-04-18T02:47:54.720Z,8.23
2023-04-18T02:50:23.846Z,8.23
2023-04-18T02:52:50.292Z,8.23
2023-04-18T02:55:17.070Z,8.23
2023-04-18T02:57:43.650Z,8.23
2023-04-18T03:00:40.835Z,8.24
2023-04-18T03:03:20.823Z,8.24
2023-04-18T03:05:57.133Z,8.24
2023-04-18T03:08:23.613Z,8.25
2023-04-18T03:10:49.933Z,8.25
2023-04-18T03:13:18.508Z,8.26
2023-04-18T03:15:45.824Z,8.26
2023-04-18T03:18:12.950Z,8.27
2023-04-18T03:20:40.291Z,8.27
2023-04-18T03:23:07.022Z,8.28
2023-04-18T03:25:35.082Z,8.29
2023-04-18T03:28:02.255Z,8.30
2023-04-18T03:30:28.821Z,8.30
2023-04-18T03:32:56.577Z,8.31
2023-04-18T03:35:23.507Z,8.32
2023-04-18T03:37:50.104Z,8.33
2023-04-18T03:40:28.128Z,8.34
2023-04-18T03:42:59.457Z,8.34
2023-04-18T03:45:26.237Z,8.35
2023-04-18T03:47:52.664Z,8.36
2023-04-18T03:50:19.861Z,8.36
2023-04-18T03:52:46.428Z,8.37
2023-04-18T03:55:14.629Z,8.38
2023-04-18T03:57:41.414Z,8.38
2023-04-18T04:00:11.440Z,8.39
2023-04-18T04:02:49.637Z,8.40
2023-04-18T04:05:19.141Z,8.40
2023-04-18T04:07:46.452Z,8.41
2023-04-18T04:10:12.748Z,8.41
2023-04-18T04:12:39.052Z,8.41
2023-04-18T04:15:06.465Z,8.41
2023-04-18T04:17:34.768Z,8.42
2023-04-18T04:20:01.719Z,8.43
2023-04-18T04:22:29.796Z,8.43
2023-04-18T04:24:57.036Z,8.45
2023-04-18T04:27:27.536Z,8.45
2023-04-18T04:29:55.701Z,8.46
2023-04-18T04:32:22.163Z,8.47
2023-04-18T04:34:48.783Z,8.47
2023-04-18T04:37:17.919Z,8.48
2023-04-18T04:39:55.903Z,8.49
2023-04-18T04:42:34.279Z,8.51
2023-04-18T04:45:09.100Z,8.52
2023-04-18T04:47:36.147Z,8.53
2023-04-18T04:50:03.654Z,8.54
2023-04-18T04:52:32.252Z,8.56
2023-04-18T04:54:58.842Z,8.57
2023-04-18T04:57:25.557Z,8.58
2023-04-18T04:59:52.281Z,8.59
2023-04-18T05:02:22.780Z,8.60
2023-04-18T05:04:49.249Z,8.61
2023-04-18T05:07:15.552Z,8.63
2023-04-18T05:09:41.777Z,8.63
2023-04-18T05:12:08.173Z,8.65
2023-04-18T05:14:34.829Z,8.67
2023-04-18T05:17:02.376Z,8.70
2023-04-18T05:19:28.900Z,8.74
2023-04-18T05:21:55.654Z,8.76
2023-04-18T05:24:21.991Z,8.80
2023-04-18T05:26:48.347Z,8.83
2023-04-18T05:29:14.636Z,8.88
2023-04-18T05:31:40.953Z,8.91
2023-04-18T05:34:07.303Z,8.96
2023-04-18T05:36:33.951Z,9.00
2023-04-18T05:39:00.343Z,9.03
2023-04-18T05:41:26.611Z,9.08
2023-04-18T05:44:04.314Z,9.12
2023-04-18T05:46:34.815Z,9.16
2023-04-18T05:49:01.921Z,9.21
2023-04-18T05:51:28.576Z,9.25
2023-04-18T05:53:55.025Z,9.30
2023-04-18T05:56:21.327Z,9.36
2023-04-18T05:58:48.348Z,9.42
2023-04-18T06:01:15.411Z,9.50
2023-04-18T06:03:41.920Z,9.56
2023-04-18T06:06:09.082Z,9.62
2023-04-18T06:08:35.503Z,9.68
2023-04-18T06:11:02.343Z,9.75
2023-04-18T06:13:29.030Z,9.81
2023-04-18T06:15:55.366Z,9.86
2023-04-18T06:18:21.913Z,9.91
2023-04-18T06:20:48.621Z,9.95
2023-04-18T06:23:14.999Z,9.99
2023-04-18T06:25:42.074Z,10.01
2023-04-18T06:28:08.509Z,10.05
2023-04-18T06:30:34.980Z,10.10
2023-04-18T06:33:01.337Z,10.16
2023-04-18T06:35:31.440Z,10.22
2023-04-18T06:37:57.740Z,10.26
2023-04-18T06:40:24.048Z,10.28
2023-04-18T06:42:50.869Z,10.32
2023-04-18T06:45:17.387Z,10.35
2023-04-18T06:47:43.977Z,10.39
2023-04-18T06:50:10.627Z,10.45
2023-04-18T06:52:39.899Z,10.51
2023-04-18T06:55:08.321Z,10.57
2023-04-18T06:57:35.109Z,10.60
2023-04-18T07:00:01.636Z,10.63
2023-04-18T07:02:27.944Z,10.66
2023-04-18T07:04:54.306Z,10.68
2023-04-18T07:07:20.685Z,10.72
2023-04-18T07:09:48.190Z,10.77
2023-04-18T07:12:15.428Z,10.81
2023-04-18T07:14:41.719Z,10.85
2023-04-18T07:17:08.288Z,10.88
2023-04-18T07:19:34.616Z,10.91
2023-04-18T07:22:00.851Z,10.93
2023-04-18T07:24:27.293Z,10.97
2023-04-18T07:26:55.157Z,10.99
2023-04-18T07:29:21.820Z,11.00
2023-04-18T07:31:48.613Z,11.00
2023-04-18T07:34:15.443Z,11.01
2023-04-18T07:36:42.047Z,11.02
2023-04-18T07:39:08.716Z,11.06
2023-04-18T07:41:35.017Z,11.09
2023-04-18T07:44:01.762Z,11.16
2023-04-18T07:46:28.391Z,11.21
2023-04-18T07:48:54.790Z,11.26
2023-04-18T07:51:24.770Z,11.26
2023-04-18T07:53:51.109Z,11.26
2023-04-18T07:56:18.193Z,11.25
2023-04-18T07:58:44.866Z,11.26
2023-04-18T08:01:13.359Z,11.24
2023-04-18T08:03:40.005Z,11.23
2023-04-18T08:06:06.653Z,11.24
2023-04-18T08:08:33.083Z,11.26
2023-04-18T08:10:59.353Z,11.26
2023-04-18T08:13:25.687Z,11.25
2023-04-18T08:15:51.953Z,11.27
2023-04-18T08:18:19.430Z,11.29
2023-04-18T08:20:46.094Z,11.34
2023-04-18T08:23:13.334Z,11.40
2023-04-18T08:25:40.177Z,11.50
2023-04-18T08:28:06.537Z,11.59
2023-04-18T08:30:33.240Z,11.68
2023-04-18T08:33:00.606Z,11.77
2023-04-18T08:35:27.496Z,11.86
2023-04-18T08:37:53.776Z,11.93
2023-04-18T08:40:20.682Z,11.98
2023-04-18T08:42:48.024Z,12.04
2023-04-18T08:45:17.212Z,12.13
2023-04-18T08:47:43.529Z,12.20
2023-04-18T08:50:10.774Z,12.28
2023-04-18T08:52:39.202Z,12.35
2023-04-18T08:55:06.544Z,12.47
2023-04-18T08:57:35.201Z,12.59
2023-04-18T09:00:04.856Z,12.72
2023-04-18T09:02:41.776Z,12.84
2023-04-18T09:05:11.733Z,12.97
2023-04-18T09:07:38.085Z,13.10
2023-04-18T09:10:04.921Z,13.24
2023-04-18T09:12:31.985Z,13.38
2023-04-18T09:15:15.606Z,13.54
2023-04-18T09:17:50.186Z,13.69
2023-04-18T09:20:41.607Z,13.82
2023-04-18T09:23:10.414Z,13.96
2023-04-18T09:25:45.142Z,14.08
2023-04-18T09:28:28.220Z,14.16
2023-04-18T09:31:16.793Z,14.25
2023-04-18T09:33:53.698Z,14.34
2023-04-18T09:36:21.901Z,14.44
2023-04-18T09:38:50.457Z,14.55
2023-04-18T09:41:18.493Z,14.66
2023-04-18T09:43:47.346Z,14.73
2023-04-18T09:46:16.716Z,14.77
2023-04-18T09:48:43.006Z,14.78
2023-04-18T09:51:12.635Z,14.78
2023-04-18T09:53:40.778Z,14.84
2023-04-18T09:56:13.907Z,14.91
2023-04-18T09:58:41.637Z,15.01
2023-04-18T10:01:08.271Z,15.14
2023-04-18T10:03:43.605Z,15.28
2023-04-18T10:06:11.189Z,15.45
2023-04-18T10:08:39.142Z,15.62
2023-04-18T10:11:05.545Z,15.75
2023-04-18T10:13:35.368Z,15.88
2023-04-18T10:16:02.287Z,16.05
2023-04-18T10:18:28.716Z,16.26
2023-04-18T10:21:02.785Z,16.58
2023-04-18T10:23:33.946Z,17.01
2023-04-18T10:26:04.133Z,17.40
2023-04-18T10:28:52.303Z,17.71
2023-04-18T10:31:20.714Z,17.98
2023-04-18T10:34:03.216Z,18.12
2023-04-18T10:36:31.761Z,18.14
2023-04-18T10:39:21.328Z,18.02
2023-04-18T10:41:50.715Z,17.80
2023-04-18T10:44:21.111Z,17.68
2023-04-18T10:46:47.864Z,17.66
2023-04-18T10:49:27.950Z,17.82
2023-04-18T10:51:57.945Z,18.15
2023-04-18T10:54:32.668Z,18.39
2023-04-18T10:57:03.957Z,18.55
2023-04-18T10:59:32.291Z,18.86
2023-04-18T11:02:22.484Z,19.17
2023-04-18T11:04:53.686Z,19.48
2023-04-18T11:07:44.332Z,19.60
2023-04-18T11:10:11.786Z,19.59
2023-04-18T11:12:40.355Z,19.41
2023-04-18T11:15:12.322Z,19.31
2023-04-18T11:17:43.593Z,19.31
2023-04-18T11:20:13.446Z,19.57
2023-04-18T11:22:43.481Z,19.83
2023-04-18T11:25:10.237Z,19.93
2023-04-18T11:27:37.091Z,19.86
2023-04-18T11:30:04.275Z,19.62
2023-04-18T11:32:33.486Z,19.40
2023-04-18T11:34:59.900Z,19.48
2023-04-18T11:37:26.349Z,19.77
2023-04-18T11:39:53.455Z,20.12
2023-04-18T11:42:20.508Z,20.58
2023-04-18T11:44:48.399Z,20.97
2023-04-18T11:47:33.243Z,21.21
2023-04-18T11:50:08.018Z,21.27
2023-04-18T11:52:36.063Z,21.09
2023-04-18T11:55:23.850Z,20.86
2023-04-18T11:57:55.405Z,20.52
2023-04-18T12:00:34.848Z,20.24
2023-04-18T12:03:07.280Z,19.86
2023-04-18T12:05:38.490Z,19.49
2023-04-18T12:08:11.075Z,19.17
2023-04-18T12:10:45.386Z,18.92
2023-04-18T12:13:11.769Z,18.68
2023-04-18T12:15:41.567Z,18.42
2023-04-18T12:18:07.883Z,18.19
2023-04-18T12:20:37.063Z,17.95
2023-04-18T12:23:03.518Z,17.72
2023-04-18T12:25:30.941Z,17.55
2023-04-18T12:27:59.797Z,17.37
2023-04-18T12:30:31.089Z,17.14
2023-04-18T12:33:00.620Z,16.90
2023-04-18T12:35:28.242Z,16.67
2023-04-18T12:37:56.407Z,16.50
2023-04-18T12:40:23.396Z,16.37
2023-04-18T12:42:51.044Z,16.33
2023-04-18T12:45:19.849Z,16.44
2023-04-18T12:47:47.779Z,16.56
2023-04-18T12:50:19.557Z,16.59
2023-04-18T12:52:46.188Z,16.50
2023-04-18T12:55:13.405Z,16.35
2023-04-18T12:57:41.649Z,16.19
2023-04-18T13:00:10.518Z,16.03
2023-04-18T13:02:38.319Z,15.90
2023-04-18T13:05:06.249Z,15.85
2023-04-18T13:07:33.015Z,15.86
2023-04-18T13:09:59.378Z,15.90
2023-04-18T13:12:25.949Z,15.94
2023-04-18T13:14:52.437Z,16.01
2023-04-18T13:17:18.699Z,16.08
2023-04-18T13:19:45.449Z,16.16
2023-04-18T13:22:11.711Z,16.25
2023-04-18T13:24:38.041Z,16.30
2023-04-18T13:27:09.680Z,16.30
2023-04-18T13:29:40.453Z,16.27
2023-04-18T13:32:07.652Z,16.24
2023-04-18T13:34:39.079Z,16.24
2023-04-18T13:37:05.752Z,16.22
2023-04-18T13:39:32.990Z,16.20
2023-04-18T13:41:59.321Z,16.18
2023-04-18T13:44:26.118Z,16.18
2023-04-18T13:46:53.899Z,16.18
2023-04-18T13:49:20.493Z,16.19
2023-04-18T13:51:46.891Z,16.17
2023-04-18T13:54:14.865Z,16.16
2023-04-18T13:56:42.053Z,16.14
2023-04-18T13:59:08.341Z,16.10
2023-04-18T14:01:34.798Z,16.04
2023-04-18T14:04:02.439Z,15.97
2023-04-18T14:06:28.964Z,15.91
2023-04-18T14:08:55.224Z,15.84
2023-04-18T14:11:22.427Z,15.78
2023-04-18T14:13:50.145Z,15.73
2023-04-18T14:16:18.272Z,15.69
2023-04-18T14:18:45.632Z,15.65
2023-04-18T14:21:12.472Z,15.62
2023-04-18T14:23:38.717Z,15.60
2023-04-18T14:26:04.958Z,15.60
2023-04-18T14:28:31.500Z,15.60
2023-04-18T14:31:01.263Z,15.59
2023-04-18T14:33:28.550Z,15.60
2023-04-18T14:35:55.239Z,15.62
2023-04-18T14:38:21.478Z,15.64
2023-04-18T14:40:47.824Z,15.66
2023-04-18T14:43:14.051Z,15.67
2023-04-18T14:45:41.410Z,15.68
2023-04-18T14:48:10.027Z,15.67
2023-04-18T14:50:37.854Z,15.66
2023-04-18T14:53:04.891Z,15.63
2023-04-18T14:55:32.688Z,15.59
2023-04-18T14:57:59.467Z,15.54
2023-04-18T15:00:26.267Z,15.50
2023-04-18T15:02:53.264Z,15.45
2023-04-18T15:05:22.958Z,15.40
2023-04-18T15:07:52.284Z,15.36
2023-04-18T15:10:21.612Z,15.32
2023-04-18T15:12:48.045Z,15.30
2023-04-18T15:15:14.516Z,15.28
2023-04-18T15:17:40.911Z,15.26
2023-04-18T15:20:07.769Z,15.24
2023-04-18T15:22:35.242Z,15.23
2023-04-18T15:25:03.611Z,15.23
2023-04-18T15:27:29.887Z,15.23
2023-04-18T15:29:58.184Z,15.23
2023-04-18T15:32:26.091Z,15.23
2023-04-18T15:34:52.556Z,15.23
2023-04-18T15:37:18.954Z,15.22
2023-04-18T15:39:45.345Z,15.21
2023-04-18T15:42:11.566Z,15.19
2023-04-18T15:44:37.898Z,15.16
2023-04-18T15:47:04.191Z,15.12
2023-04-18T15:49:30.545Z,15.09
2023-04-18T15:51:56.952Z,15.06
2023-04-18T15:54:23.285Z,15.03
2023-04-18T15:56:50.926Z,15.00
2023-04-18T15:59:17.295Z,14.96
2023-04-18T16:01:45.873Z,14.93
2023-04-18T16:04:12.835Z,14.90
2023-04-18T16:06:39.970Z,14.87
2023-04-18T16:09:06.247Z,14.83
2023-04-18T16:11:32.495Z,14.81
2023-04-18T16:13:58.746Z,14.76
2023-04-18T16:16:25.849Z,14.71
2023-04-18T16:18:52.132Z,14.68
2023-04-18T16:21:19.903Z,14.64
2023-04-18T16:23:47.983Z,14.62
2023-04-18T16:26:14.361Z,14.59
2023-04-18T16:28:41.344Z,14.55
2023-04-18T16:31:07.745Z,14.52
2023-04-18T16:33:35.202Z,14.49
2023-04-18T16:36:02.383Z,14.46
2023-04-18T16:38:28.734Z,14.42
2023-04-18T16:40:56.717Z,14.40
2023-04-18T16:43:30.208Z,14.39
2023-04-18T16:45:57.294Z,14.37
2023-04-18T16:48:23.911Z,14.35
2023-04-18T16:50:51.155Z,14.32
2023-04-18T16:53:17.573Z,14.28
2023-04-18T16:55:43.867Z,14.24
2023-04-18T16:58:10.453Z,14.20
2023-04-18T17:00:38.359Z,14.17
2023-04-18T17:03:09.354Z,14.14
2023-04-18T17:05:38.609Z,14.12
2023-04-18T17:08:06.076Z,14.09
2023-04-18T17:10:33.161Z,14.06
2023-04-18T17:13:01.448Z,14.02
2023-04-18T17:15:27.846Z,13.98
2023-04-18T17:17:55.875Z,13.94
2023-04-18T17:20:22.945Z,13.91
2023-04-18T17:22:49.246Z,13.87
2023-04-18T17:25:15.964Z,13.84
2023-04-18T17:27:42.616Z,13.82
2023-04-18T17:30:09.509Z,13.79
2023-04-18T17:32:36.280Z,13.74
2023-04-18T17:35:05.553Z,13.70
2023-04-18T17:37:31.860Z,13.66
2023-04-18T17:39:59.727Z,13.63
2023-04-18T17:42:26.259Z,13.58
2023-04-18T17:44:52.607Z,13.53
2023-04-18T17:47:18.839Z,13.47
2023-04-18T17:49:45.653Z,13.41
2023-04-18T17:52:11.977Z,13.35
2023-04-18T17:54:38.219Z,13.29
2023-04-18T17:57:04.784Z,13.23
2023-04-18T17:59:36.749Z,13.17
2023-04-18T18:02:04.196Z,13.12
2023-04-18T18:04:31.134Z,13.06
2023-04-18T18:06:58.308Z,13.00
2023-04-18T18:09:24.769Z,12.94
2023-04-18T18:11:52.451Z,12.88
2023-04-18T18:14:20.631Z,12.82
2023-04-18T18:16:46.994Z,12.76
2023-04-18T18:19:14.696Z,12.70
2023-04-18T18:21:41.547Z,12.65
2023-04-18T18:24:08.475Z,12.60
2023-04-18T18:26:35.520Z,12.54
2023-04-18T18:29:08.470Z,12.48
2023-04-18T18:31:35.720Z,12.42
2023-04-18T18:34:02.759Z,12.36
2023-04-18T18:36:29.267Z,12.31
2023-04-18T18:38:57.421Z,12.28
2023-04-18T18:41:24.237Z,12.26
2023-04-18T18:43:51.073Z,12.26
2023-04-18T18:46:18.197Z,12.27
2023-04-18T18:48:44.642Z,12.28
2023-04-18T18:51:11.329Z,12.28
2023-04-18T18:53:40.218Z,12.30
2023-04-18T18:56:08.083Z,12.31
2023-04-18T18:58:35.261Z,12.31
2023-04-18T19:01:02.609Z,12.33
2023-04-18T19:03:29.803Z,12.35
2023-04-18T19:05:56.472Z,12.37
2023-04-18T19:08:22.766Z,12.38
2023-04-18T19:10:49.871Z,12.39
2023-04-18T19:13:16.271Z,12.40
2023-04-18T19:15:42.675Z,12.40
2023-04-18T19:18:09.158Z,12.43
2023-04-18T19:20:38.032Z,12.44
2023-04-18T19:23:04.299Z,12.45
2023-04-18T19:25:30.713Z,12.45
2023-04-18T19:27:57.050Z,12.44
2023-04-18T19:30:24.384Z,12.44
2023-04-18T19:32:51.158Z,12.44
2023-04-18T19:35:20.188Z,12.44
2023-04-18T19:37:47.313Z,12.44
2023-04-18T19:40:18.455Z,12.43
2023-04-18T19:42:45.439Z,12.42
2023-04-18T19:45:12.949Z,12.42
2023-04-18T19:47:39.362Z,12.41
2023-04-18T19:50:06.852Z,12.40
2023-04-18T19:52:33.243Z,12.40
2023-04-18T19:55:01.875Z,12.38
2023-04-18T19:57:29.066Z,12.38
2023-04-18T19:59:55.868Z,12.37
2023-04-18T20:02:22.195Z,12.37
2023-04-18T20:04:48.821Z,12.36
2023-04-18T20:07:15.797Z,12.35
2023-04-18T20:09:42.110Z,12.34
2023-04-18T20:12:08.480Z,12.34
2023-04-18T20:14:34.958Z,12.34
2023-04-18T20:17:01.505Z,12.31
2023-04-18T20:19:28.907Z,12.29
2023-04-18T20:21:55.395Z,12.27
2023-04-18T20:24:23.036Z,12.26
2023-04-18T20:26:50.671Z,12.25
2023-04-18T20:29:17.053Z,12.22
2023-04-18T20:44:48.544Z,12.10
2023-04-18T20:47:15.936Z,12.09
2023-04-18T20:49:42.363Z,12.08
2023-04-18T20:52:13.722Z,12.06
2023-04-18T20:54:41.007Z,12.04
2023-04-18T20:57:07.555Z,12.01
2023-04-18T20:59:34.120Z,11.97
2023-04-18T21:02:01.050Z,11.94
2023-04-18T21:04:28.740Z,11.90
2023-04-18T21:06:55.542Z,11.88
2023-04-18T21:09:22.467Z,11.84
2023-04-18T21:11:49.158Z,11.80
2023-04-18T21:14:16.559Z,11.77
2023-04-18T21:16:43.221Z,11.74
2023-04-18T21:19:10.904Z,11.71
2023-04-18T21:21:37.163Z,11.68
2023-04-18T21:24:05.049Z,11.64
2023-04-18T21:26:31.285Z,11.61
2023-04-18T21:29:03.923Z,11.58
2023-04-18T21:31:32.575Z,11.55
2023-04-18T21:34:00.934Z,11.53
2023-04-18T21:36:28.303Z,11.50
2023-04-18T21:38:57.626Z,11.47
2023-04-18T21:41:24.552Z,11.45
2023-04-18T21:43:51.236Z,11.43
2023-04-18T21:46:18.429Z,11.41
2023-04-18T21:48:46.926Z,11.38
2023-04-18T21:51:15.506Z,11.35
2023-04-18T21:53:42.344Z,11.33
2023-04-18T21:56:09.159Z,11.30
2023-04-18T21:58:35.498Z,11.28
2023-04-18T22:01:02.432Z,11.26
2023-04-18T22:03:29.354Z,11.23
2023-04-18T22:05:56.036Z,11.21
2023-04-18T22:08:24.996Z,11.17
2023-04-18T22:10:54.359Z,11.14
2023-04-18T22:13:21.545Z,11.10
2023-04-18T22:15:49.247Z,11.07
2023-04-18T22:18:15.573Z,11.03
2023-04-18T22:20:42.488Z,11.00
2023-04-18T22:23:08.989Z,10.96
2023-04-18T22:25:35.642Z,10.93
2023-04-18T22:28:03.017Z,10.92
2023-04-18T22:30:30.362Z,10.89
2023-04-18T22:32:58.359Z,10.88
2023-04-18T22:35:26.149Z,10.86
2023-04-18T22:37:52.391Z,10.83
2023-04-18T22:40:18.841Z,10.82
2023-04-18T22:42:45.202Z,10.80
2023-04-18T22:45:12.737Z,10.79
2023-04-18T22:47:39.116Z,10.78
2023-04-18T22:50:06.382Z,10.76
2023-04-18T22:52:33.361Z,10.75
2023-04-18T22:55:01.564Z,10.73
2023-04-18T22:57:28.014Z,10.71
2023-04-18T22:59:54.351Z,10.70
2023-04-18T23:02:20.737Z,10.68
2023-04-18T23:04:47.342Z,10.66
2023-04-18T23:07:13.727Z,10.64
2023-04-18T23:09:40.272Z,10.64
2023-04-18T23:12:06.632Z,10.62
2023-04-18T23:14:34.148Z,10.60
2023-04-18T23:17:00.669Z,10.57
2023-04-18T23:19:26.922Z,10.55
2023-04-18T23:21:53.519Z,10.52
2023-04-18T23:24:19.735Z,10.50
2023-04-18T23:26:45.963Z,10.47
2023-04-18T23:29:12.218Z,10.44
2023-04-18T23:31:38.490Z,10.40
2023-04-18T23:34:04.769Z,10.37
2023-04-18T23:36:31.614Z,10.33
2023-04-18T23:38:58.258Z,10.29
2023-04-18T23:41:24.754Z,10.25
2023-04-18T23:43:51.100Z,10.20
2023-04-18T23:46:17.488Z,10.15
2023-04-18T23:48:43.871Z,10.10
2023-04-18T23:51:10.475Z,10.05
2023-04-18T23:53:36.710Z,10.00
2023-04-18T23:56:03.091Z,9.95
2023-04-18T23:58:30.968Z,9.89
